createdAt,value
2023-03-08T00:02:01.167Z,0.93
2023-03-08T00:04:03.206Z,0.91
2023-03-08T00:06:05.580Z,0.92
2023-03-08T00:08:07.361Z,0.89
2023-03-08T00:10:10.743Z,0.89
2023-03-08T00:12:12.370Z,0.89
2023-03-08T00:14:14.556Z,0.88
2023-03-08T00:16:17.909Z,0.85
2023-03-08T00:18:19.795Z,0.86
2023-03-08T00:20:21.394Z,0.85
2023-03-08T00:22:23.016Z,0.85
2023-03-08T00:24:25.041Z,0.84
2023-03-08T00:26:26.754Z,0.83
2023-03-08T00:28:28.412Z,0.80
2023-03-08T00:30:30.208Z,0.80
2023-03-08T00:32:33.746Z,0.80
2023-03-08T00:34:35.618Z,0.76
2023-03-08T00:36:37.979Z,0.75
2023-03-08T00:38:40.000Z,0.72
2023-03-08T00:40:41.842Z,0.69
2023-03-08T00:42:43.389Z,0.68
2023-03-08T00:44:45.513Z,0.66
2023-03-08T00:46:47.150Z,0.62
2023-03-08T00:48:50.393Z,0.60
2023-03-08T00:50:52.259Z,0.57
2023-03-08T00:52:53.902Z,0.53
2023-03-08T00:54:55.547Z,0.51
2023-03-08T00:56:57.547Z,0.47
2023-03-08T00:58:59.161Z,0.46
2023-03-08T01:01:00.953Z,0.43
2023-03-08T01:03:02.976Z,0.40
2023-03-08T01:05:07.084Z,0.40
2023-03-08T01:07:08.901Z,0.36
2023-03-08T01:09:11.154Z,0.35
2023-03-08T01:11:18.088Z,0.33
2023-03-08T01:13:20.690Z,0.30
2023-03-08T01:15:22.481Z,0.29
2023-03-08T01:17:24.294Z,0.27
2023-03-08T01:19:25.936Z,0.24
2023-03-08T01:21:30.332Z,0.22
2023-03-08T01:23:32.793Z,0.21
2023-03-08T01:25:34.427Z,0.19
2023-03-08T01:27:36.039Z,0.17
2023-03-08T01:29:37.856Z,0.16
2023-03-08T01:31:39.427Z,0.15
2023-03-08T01:33:41.561Z,0.13
2023-03-08T01:35:43.225Z,0.12
2023-03-08T01:37:46.675Z,0.11
2023-03-08T01:39:48.559Z,0.09
2023-03-08T01:41:50.179Z,0.09
2023-03-08T01:43:52.812Z,0.07
2023-03-08T01:46:17.277Z,0.07
2023-03-08T01:48:20.680Z,0.05
2023-03-08T01:50:22.523Z,0.03
2023-03-08T01:52:30.149Z,0.03
2023-03-08T01:54:37.251Z,0.02
2023-03-08T01:56:39.678Z,-0.01
2023-03-08T01:58:44.023Z,-0.02
2023-03-08T02:00:45.714Z,-0.03
2023-03-08T02:02:51.165Z,-0.03
2023-03-08T02:04:52.836Z,-0.06
2023-03-08T02:06:54.518Z,-0.06
2023-03-08T02:08:56.488Z,-0.08
2023-03-08T02:11:01.426Z,-0.08
2023-03-08T02:13:04.576Z,-0.09
2023-03-08T02:15:10.063Z,-0.10
2023-03-08T02:17:12.143Z,-0.11
2023-03-08T02:19:20.819Z,-0.12
2023-03-08T02:21:23.448Z,-0.13
2023-03-08T02:23:27.424Z,-0.14
2023-03-08T02:25:29.156Z,-0.14
2023-03-08T02:27:31.181Z,-0.15
2023-03-08T02:29:33.039Z,-0.17
2023-03-08T02:31:34.702Z,-0.17
2023-03-08T02:33:36.267Z,-0.19
2023-03-08T02:35:38.231Z,-0.20
2023-03-08T02:37:39.894Z,-0.20
2023-03-08T02:39:42.963Z,-0.21
2023-03-08T02:41:45.097Z,-0.22
2023-03-08T02:43:46.733Z,-0.22
2023-03-08T02:45:48.918Z,-0.23
2023-03-08T02:47:51.414Z,-0.24
2023-03-08T02:49:53.060Z,-0.24
2023-03-08T02:51:54.970Z,-0.25
2023-03-08T02:53:56.583Z,-0.27
2023-03-08T02:55:59.620Z,-0.27
2023-03-08T02:58:01.518Z,-0.28
2023-03-08T03:00:04.039Z,-0.29
2023-03-08T03:02:06.212Z,-0.30
2023-03-08T03:04:08.174Z,-0.32
2023-03-08T03:06:14.187Z,-0.31
2023-03-08T03:08:16.226Z,-0.32
2023-03-08T03:10:18.688Z,-0.34
2023-03-08T03:12:21.973Z,-0.36
2023-03-08T03:14:23.869Z,-0.36
2023-03-08T03:16:26.426Z,-0.36
2023-03-08T03:18:28.323Z,-0.36
2023-03-08T03:20:30.642Z,-0.38
2023-03-08T03:22:33.141Z,-0.37
2023-03-08T03:24:37.399Z,-0.38
2023-03-08T03:26:39.520Z,-0.39
2023-03-08T03:28:43.071Z,-0.40
2023-03-08T03:30:44.881Z,-0.40
2023-03-08T03:32:47.023Z,-0.42
2023-03-08T03:34:48.843Z,-0.42
2023-03-08T03:36:50.497Z,-0.44
2023-03-08T03:38:52.403Z,-0.44
2023-03-08T03:41:00.682Z,-0.45
2023-03-08T03:43:02.254Z,-0.45
2023-03-08T03:45:06.489Z,-0.44
2023-03-08T03:47:08.425Z,-0.44
2023-03-08T03:49:09.996Z,-0.44
2023-03-08T03:51:13.875Z,-0.43
2023-03-08T03:53:15.432Z,-0.42
2023-03-08T03:55:17.244Z,-0.42
2023-03-08T03:57:20.065Z,-0.41
2023-03-08T03:59:21.726Z,-0.41
2023-03-08T04:01:27.102Z,-0.41
2023-03-08T04:03:28.908Z,-0.40
2023-03-08T04:05:30.565Z,-0.41
2023-03-08T04:07:32.963Z,-0.40
2023-03-08T04:09:35.828Z,-0.39
2023-03-08T04:11:39.362Z,-0.38
2023-03-08T04:13:41.652Z,-0.37
2023-03-08T04:15:43.389Z,-0.36
2023-03-08T04:17:46.570Z,-0.35
2023-03-08T04:19:49.196Z,-0.35
2023-03-08T04:21:50.761Z,-0.33
2023-03-08T04:23:52.816Z,-0.32
2023-03-08T04:25:54.480Z,-0.31
2023-03-08T04:27:56.131Z,-0.29
2023-03-08T04:29:57.820Z,-0.28
2023-03-08T04:31:59.457Z,-0.27
2023-03-08T04:34:03.419Z,-0.25
2023-03-08T04:36:05.795Z,-0.23
2023-03-08T04:38:07.728Z,-0.22
2023-03-08T04:40:10.509Z,-0.20
2023-03-08T04:42:12.115Z,-0.19
2023-03-08T04:44:13.734Z,-0.18
2023-03-08T04:46:16.528Z,-0.18
2023-03-08T04:48:18.191Z,-0.16
2023-03-08T04:50:21.598Z,-0.15
2023-03-08T04:52:24.367Z,-0.16
2023-03-08T04:54:26.470Z,-0.15
2023-03-08T04:56:28.080Z,-0.13
2023-03-08T04:58:30.903Z,-0.12
2023-03-08T05:00:32.552Z,-0.11
2023-03-08T05:02:34.184Z,-0.11
2023-03-08T05:04:36.291Z,-0.09
2023-03-08T05:06:40.299Z,-0.07
2023-03-08T05:08:41.992Z,-0.05
2023-03-08T05:10:47.767Z,-0.04
2023-03-08T05:12:49.324Z,-0.04
2023-03-08T05:14:51.280Z,-0.02
2023-03-08T05:16:55.130Z,0.01
2023-03-08T05:18:56.843Z,0.03
2023-03-08T05:21:01.146Z,0.03
2023-03-08T05:23:04.548Z,0.05
2023-03-08T05:25:06.636Z,0.06
2023-03-08T05:27:08.668Z,0.08
2023-03-08T05:29:10.324Z,0.10
2023-03-08T05:31:14.174Z,0.12
2023-03-08T05:33:16.208Z,0.13
2023-03-08T05:35:18.189Z,0.14
2023-03-08T05:37:19.939Z,0.16
2023-03-08T05:39:23.111Z,0.16
2023-03-08T05:41:24.979Z,0.16
2023-03-08T05:43:26.633Z,0.18
2023-03-08T05:45:28.618Z,0.19
2023-03-08T05:47:30.833Z,0.21
2023-03-08T05:49:32.482Z,0.20
2023-03-08T05:51:34.407Z,0.22
2023-03-08T05:53:36.369Z,0.21
2023-03-08T05:55:39.381Z,0.24
2023-03-08T05:57:41.268Z,0.24
2023-03-08T05:59:42.932Z,0.26
2023-03-08T06:01:44.963Z,0.27
2023-03-08T06:03:48.620Z,0.27
2023-03-08T06:05:50.240Z,0.29
2023-03-08T06:07:52.116Z,0.30
2023-03-08T06:09:54.018Z,0.31
2023-03-08T06:11:57.245Z,0.33
2023-03-08T06:14:00.430Z,0.33
2023-03-08T06:16:02.934Z,0.34
2023-03-08T06:18:04.987Z,0.36
2023-03-08T06:20:07.816Z,0.36
2023-03-08T06:22:09.527Z,0.38
2023-03-08T06:24:11.427Z,0.40
2023-03-08T06:26:14.370Z,0.41
2023-03-08T06:28:18.015Z,0.42
2023-03-08T06:30:20.190Z,0.42
2023-03-08T06:32:21.841Z,0.44
2023-03-08T06:34:23.540Z,0.45
2023-03-08T06:36:25.119Z,0.47
2023-03-08T06:38:29.683Z,0.46
2023-03-08T06:40:32.019Z,0.50
2023-03-08T06:42:41.083Z,0.51
2023-03-08T06:44:44.766Z,0.53
2023-03-08T06:46:46.874Z,0.54
2023-03-08T06:48:49.729Z,0.54
2023-03-08T06:50:51.417Z,0.58
2023-03-08T06:52:53.218Z,0.59
2023-03-08T06:54:55.048Z,0.61
2023-03-08T06:56:56.847Z,0.63
2023-03-08T06:58:58.709Z,0.66
2023-03-08T07:01:01.949Z,0.70
2023-03-08T07:03:04.115Z,0.70
2023-03-08T07:05:06.159Z,0.69
2023-03-08T07:07:07.831Z,0.75
2023-03-08T07:09:09.649Z,0.76
2023-03-08T07:11:11.461Z,0.78
2023-03-08T07:13:13.174Z,0.80
2023-03-08T07:15:16.637Z,0.82
2023-03-08T07:17:19.805Z,0.83
2023-03-08T07:19:21.766Z,0.86
2023-03-08T07:21:24.027Z,0.88
2023-03-08T07:23:25.803Z,0.89
2023-03-08T07:25:27.631Z,0.91
2023-03-08T07:27:29.524Z,0.93
2023-03-08T07:29:31.137Z,0.95
2023-03-08T07:31:34.372Z,0.97
2023-03-08T07:33:37.600Z,1.01
2023-03-08T07:35:40.162Z,1.04
2023-03-08T07:37:44.830Z,1.07
2023-03-08T07:39:46.466Z,1.09
2023-03-08T07:41:48.060Z,1.11
2023-03-08T07:43:49.754Z,1.13
2023-03-08T07:45:51.290Z,1.15
2023-03-08T07:47:53.493Z,1.16
2023-03-08T07:49:56.605Z,1.19
2023-03-08T07:51:58.472Z,1.21
2023-03-08T07:54:00.099Z,1.24
2023-03-08T07:56:02.135Z,1.27
2023-03-08T07:58:03.982Z,1.28
2023-03-08T08:00:07.593Z,1.34
2023-03-08T08:02:12.002Z,1.38
2023-03-08T08:04:13.859Z,1.44
2023-03-08T08:06:17.150Z,1.46
2023-03-08T08:08:18.716Z,1.49
2023-03-08T08:10:20.278Z,1.52
2023-03-08T08:12:21.900Z,1.55
2023-03-08T08:14:23.765Z,1.59
2023-03-08T08:16:25.350Z,1.63
2023-03-08T08:18:27.138Z,1.64
2023-03-08T08:20:29.032Z,1.68
2023-03-08T08:22:34.637Z,1.71
2023-03-08T08:24:36.244Z,1.72
2023-03-08T08:26:38.305Z,1.74
2023-03-08T08:28:41.893Z,1.74
2023-03-08T08:30:43.475Z,1.77
2023-03-08T08:32:45.158Z,1.78
2023-03-08T08:34:46.855Z,1.80
2023-03-08T08:36:48.673Z,1.81
2023-03-08T08:38:51.979Z,1.85
2023-03-08T08:40:53.795Z,1.86
2023-03-08T08:42:55.797Z,1.88
2023-03-08T08:44:57.690Z,1.90
2023-03-08T08:46:59.528Z,1.92
2023-03-08T08:49:01.665Z,1.94
2023-03-08T08:51:03.816Z,1.95
2023-03-08T08:53:06.004Z,1.98
2023-03-08T08:55:09.763Z,1.99
2023-03-08T08:57:11.384Z,2.01
2023-03-08T08:59:13.556Z,2.02
2023-03-08T09:01:17.716Z,2.02
2023-03-08T09:03:19.331Z,2.04
2023-03-08T09:05:21.343Z,2.06
2023-03-08T09:07:22.881Z,2.08
2023-03-08T09:09:24.452Z,2.08
2023-03-08T09:11:28.404Z,2.08
2023-03-08T09:13:30.184Z,2.11
2023-03-08T09:15:32.508Z,2.12
2023-03-08T09:17:34.079Z,2.12
2023-03-08T09:19:35.609Z,2.12
2023-03-08T09:21:37.202Z,2.12
2023-03-08T09:23:38.935Z,2.13
2023-03-08T09:25:40.800Z,2.15
2023-03-08T09:27:43.942Z,2.16
2023-03-08T09:29:45.534Z,2.17
2023-03-08T09:31:47.521Z,2.18
2023-03-08T09:33:50.805Z,2.22
2023-03-08T09:35:56.608Z,2.24
2023-03-08T09:37:58.408Z,2.26
2023-03-08T09:40:00.458Z,2.29
2023-03-08T09:42:03.857Z,2.31
2023-03-08T09:44:18.376Z,2.36
2023-03-08T09:46:26.350Z,2.38
2023-03-08T09:48:31.234Z,2.39
2023-03-08T09:50:37.844Z,2.42
2023-03-08T09:52:43.296Z,2.46
2023-03-08T09:54:46.134Z,2.48
2023-03-08T09:56:50.166Z,2.48
2023-03-08T09:58:56.828Z,2.52
2023-03-08T10:01:10.174Z,2.54
2023-03-08T10:03:40.646Z,2.58
2023-03-08T10:05:50.785Z,2.60
2023-03-08T10:08:00.803Z,2.62
2023-03-08T10:10:17.270Z,2.64
2023-03-08T10:12:23.406Z,2.66
2023-03-08T10:14:30.614Z,2.68
2023-03-08T10:16:39.090Z,2.72
2023-03-08T10:18:45.606Z,2.75
2023-03-08T10:20:48.193Z,2.78
2023-03-08T10:22:57.548Z,2.82
2023-03-08T10:25:02.828Z,2.85
2023-03-08T10:27:21.221Z,2.91
2023-03-08T10:29:23.292Z,2.93
2023-03-08T10:31:26.892Z,2.95
2023-03-08T10:33:34.436Z,3.00
2023-03-08T10:35:37.893Z,3.03
2023-03-08T10:37:39.662Z,3.09
2023-03-08T10:39:49.933Z,3.14
2023-03-08T10:41:54.616Z,3.18
2023-03-08T10:43:56.775Z,3.23
2023-03-08T10:46:02.372Z,3.27
2023-03-08T10:48:06.204Z,3.29
2023-03-08T10:50:15.928Z,3.32
2023-03-08T10:52:25.480Z,3.35
2023-03-08T10:54:28.982Z,3.38
2023-03-08T10:56:37.037Z,3.40
2023-03-08T10:58:40.284Z,3.43
2023-03-08T11:00:43.983Z,3.48
2023-03-08T11:02:46.521Z,3.51
2023-03-08T11:04:52.274Z,3.55
2023-03-08T11:06:56.053Z,3.58
2023-03-08T11:08:59.913Z,3.61
2023-03-08T11:11:07.401Z,3.65
2023-03-08T11:13:21.325Z,3.69
2023-03-08T11:15:23.476Z,3.74
2023-03-08T11:17:32.170Z,3.77
2023-03-08T11:19:47.100Z,3.83
2023-03-08T11:22:00.727Z,3.88
2023-03-08T11:24:13.416Z,3.91
2023-03-08T11:26:23.814Z,3.94
2023-03-08T11:28:41.779Z,3.98
2023-03-08T11:30:56.284Z,4.01
2023-03-08T11:33:15.167Z,4.05
2023-03-08T11:35:27.546Z,4.09
2023-03-08T11:37:40.870Z,4.11
2023-03-08T11:39:46.586Z,4.16
2023-03-08T11:41:59.232Z,4.21
2023-03-08T11:44:13.240Z,4.28
2023-03-08T11:46:22.893Z,4.36
2023-03-08T11:48:47.636Z,4.42
2023-03-08T11:50:53.513Z,4.49
2023-03-08T11:53:08.479Z,4.58
2023-03-08T11:55:28.962Z,4.65
2023-03-08T11:57:35.346Z,4.69
2023-03-08T11:59:42.808Z,4.75
2023-03-08T12:01:49.996Z,4.79
2023-03-08T12:03:54.332Z,4.83
2023-03-08T12:05:59.711Z,4.87
2023-03-08T12:08:12.576Z,4.90
2023-03-08T12:10:20.314Z,4.92
2023-03-08T12:12:30.954Z,4.94
2023-03-08T12:14:35.284Z,4.93
2023-03-08T12:16:46.566Z,4.94
2023-03-08T12:18:54.560Z,4.91
2023-03-08T12:21:08.344Z,4.91
2023-03-08T12:23:21.547Z,4.91
2023-03-08T12:25:28.357Z,4.89
2023-03-08T12:27:37.231Z,4.88
2023-03-08T12:29:45.259Z,4.87
2023-03-08T12:31:48.654Z,4.85
2023-03-08T12:33:50.401Z,4.84
2023-03-08T12:35:54.841Z,4.85
2023-03-08T12:37:59.066Z,4.85
2023-03-08T12:40:05.361Z,4.85
2023-03-08T12:42:17.039Z,4.86
2023-03-08T12:44:26.215Z,4.85
2023-03-08T12:46:27.918Z,4.85
2023-03-08T12:48:32.516Z,4.85
2023-03-08T12:50:40.555Z,4.85
2023-03-08T12:52:42.986Z,4.83
2023-03-08T12:54:56.345Z,4.83
2023-03-08T12:57:01.921Z,4.83
2023-03-08T12:59:27.852Z,4.83
2023-03-08T13:01:34.926Z,4.82
2023-03-08T13:03:39.739Z,4.80
2023-03-08T13:05:43.310Z,4.78
2023-03-08T13:07:59.888Z,4.78
2023-03-08T13:10:08.298Z,4.77
2023-03-08T13:12:22.874Z,4.76
2023-03-08T13:14:27.823Z,4.75
2023-03-08T13:16:34.382Z,4.76
2023-03-08T13:18:36.700Z,4.75
2023-03-08T13:21:04.069Z,4.80
2023-03-08T13:23:10.900Z,4.78
2023-03-08T13:25:23.530Z,4.84
2023-03-08T13:27:39.544Z,4.85
2023-03-08T13:29:44.008Z,4.90
2023-03-08T13:31:46.300Z,4.94
2023-03-08T13:33:49.684Z,4.97
2023-03-08T13:35:56.682Z,5.02
2023-03-08T13:38:00.252Z,5.06
2023-03-08T13:40:02.800Z,5.10
2023-03-08T13:42:10.317Z,5.13
2023-03-08T13:44:17.445Z,5.17
2023-03-08T13:46:20.586Z,5.20
2023-03-08T13:48:25.282Z,5.24
2023-03-08T13:50:30.650Z,5.27
2023-03-08T13:52:34.280Z,5.28
2023-03-08T13:54:42.151Z,5.31
2023-03-08T13:56:44.041Z,5.34
2023-03-08T13:58:48.518Z,5.34
2023-03-08T14:01:02.082Z,5.39
2023-03-08T14:03:05.575Z,5.39
2023-03-08T14:05:17.625Z,5.42
2023-03-08T14:07:22.380Z,5.43
2023-03-08T14:09:25.191Z,5.43
2023-03-08T14:11:29.116Z,5.44
2023-03-08T14:13:33.690Z,5.46
2023-03-08T14:15:38.906Z,5.48
2023-03-08T14:17:42.121Z,5.49
2023-03-08T14:19:43.808Z,5.52
2023-03-08T14:21:50.096Z,5.51
2023-03-08T14:23:55.553Z,5.52
2023-03-08T14:25:57.368Z,5.53
2023-03-08T14:27:59.652Z,5.53
2023-03-08T14:30:04.886Z,5.54
2023-03-08T14:32:29.210Z,5.59
2023-03-08T14:34:33.847Z,5.58
2023-03-08T14:36:35.427Z,5.61
2023-03-08T14:38:37.170Z,5.60
2023-03-08T14:40:47.905Z,5.63
2023-03-08T14:42:53.176Z,5.64
2023-03-08T14:44:57.961Z,5.65
2023-03-08T14:47:08.978Z,5.67
2023-03-08T14:49:20.787Z,5.69
2023-03-08T14:51:29.073Z,5.69
2023-03-08T14:53:32.874Z,5.69
2023-03-08T14:55:36.370Z,5.70
2023-03-08T14:57:38.054Z,5.69
2023-03-08T14:59:40.270Z,5.67
2023-03-08T15:01:41.934Z,5.69
2023-03-08T15:03:43.513Z,5.65
2023-03-08T15:05:45.536Z,5.67
2023-03-08T15:07:50.071Z,5.66
2023-03-08T15:09:52.082Z,5.66
2023-03-08T15:11:53.931Z,5.66
2023-03-08T15:13:55.823Z,5.65
2023-03-08T15:15:57.953Z,5.63
2023-03-08T15:17:59.638Z,5.63
2023-03-08T15:20:01.189Z,5.61
2023-03-08T15:22:05.395Z,5.58
2023-03-08T15:24:14.629Z,5.55
2023-03-08T15:26:22.653Z,5.53
2023-03-08T15:28:24.919Z,5.51
2023-03-08T15:30:28.997Z,5.49
2023-03-08T15:32:30.833Z,5.46
2023-03-08T15:34:32.735Z,5.45
2023-03-08T15:36:34.230Z,5.43
2023-03-08T15:38:36.420Z,5.38
2023-03-08T15:40:40.271Z,5.39
2023-03-08T15:42:42.394Z,5.37
2023-03-08T15:44:43.944Z,5.35
2023-03-08T15:46:45.969Z,5.32
2023-03-08T15:48:47.966Z,5.28
2023-03-08T15:50:50.022Z,5.27
2023-03-08T15:52:51.682Z,5.27
2023-03-08T15:54:53.328Z,5.26
2023-03-08T15:56:57.027Z,5.25
2023-03-08T15:58:59.278Z,5.25
2023-03-08T16:01:00.892Z,5.23
2023-03-08T16:03:03.028Z,5.24
2023-03-08T16:05:06.312Z,5.23
2023-03-08T16:07:08.169Z,5.19
2023-03-08T16:09:10.093Z,5.16
2023-03-08T16:11:13.907Z,5.12
2023-03-08T16:13:17.838Z,5.06
2023-03-08T16:15:20.322Z,5.02
2023-03-08T16:17:22.173Z,4.98
2023-03-08T16:19:24.353Z,4.95
2023-03-08T16:21:25.958Z,4.89
2023-03-08T16:23:27.771Z,4.85
2023-03-08T16:25:29.463Z,4.83
2023-03-08T16:27:31.328Z,4.80
2023-03-08T16:29:34.511Z,4.78
2023-03-08T16:31:36.426Z,4.75
2023-03-08T16:33:38.749Z,4.74
2023-03-08T16:35:40.623Z,4.71
2023-03-08T16:37:42.251Z,4.68
2023-03-08T16:39:45.238Z,4.65
2023-03-08T16:41:46.870Z,4.61
2023-03-08T16:43:48.760Z,4.58
2023-03-08T16:45:55.618Z,4.56
2023-03-08T16:47:57.190Z,4.52
2023-03-08T16:49:59.206Z,4.49
2023-03-08T16:52:00.991Z,4.46
2023-03-08T16:54:02.624Z,4.43
2023-03-08T16:56:04.461Z,4.39
2023-03-08T16:58:06.120Z,4.36
2023-03-08T17:00:08.842Z,4.32
2023-03-08T17:02:15.084Z,4.29
2023-03-08T17:04:16.881Z,4.24
2023-03-08T17:06:20.811Z,4.22
2023-03-08T17:08:22.659Z,4.18
2023-03-08T17:10:24.652Z,4.15
2023-03-08T17:12:26.749Z,4.12
2023-03-08T17:14:28.794Z,4.08
2023-03-08T17:16:32.361Z,4.04
2023-03-08T17:18:35.638Z,4.00
2023-03-08T17:20:39.225Z,3.97
2023-03-08T17:22:40.825Z,3.92
2023-03-08T17:24:42.441Z,3.87
2023-03-08T17:26:46.444Z,3.83
2023-03-08T17:28:49.729Z,3.78
2023-03-08T17:30:51.834Z,3.72
2023-03-08T17:32:53.498Z,3.66
2023-03-08T17:34:56.722Z,3.60
2023-03-08T17:36:58.526Z,3.55
2023-03-08T17:39:00.301Z,3.50
2023-03-08T17:41:05.628Z,3.47
2023-03-08T17:43:07.485Z,3.40
2023-03-08T17:45:09.819Z,3.36
2023-03-08T17:47:11.418Z,3.30
2023-03-08T17:49:13.401Z,3.25
2023-03-08T17:51:18.553Z,3.22
2023-03-08T17:53:20.230Z,3.16
2023-03-08T17:55:21.943Z,3.13
2023-03-08T17:57:23.704Z,3.08
2023-03-08T17:59:25.568Z,3.04
2023-03-08T18:01:29.680Z,3.00
2023-03-08T18:03:31.593Z,2.95
2023-03-08T18:05:33.182Z,2.91
2023-03-08T18:07:36.564Z,2.87
2023-03-08T18:09:38.342Z,2.82
2023-03-08T18:11:40.685Z,2.80
2023-03-08T18:13:42.353Z,2.75
2023-03-08T18:15:43.897Z,2.74
2023-03-08T18:17:45.474Z,2.69
2023-03-08T18:19:47.311Z,2.66
2023-03-08T18:21:48.841Z,2.64
2023-03-08T18:23:53.665Z,2.60
2023-03-08T18:25:55.359Z,2.55
2023-03-08T18:27:57.083Z,2.52
2023-03-08T18:29:58.693Z,2.47
2023-03-08T18:32:00.984Z,2.41
2023-03-08T18:34:02.786Z,2.38
2023-03-08T18:36:05.411Z,2.32
2023-03-08T18:38:06.986Z,2.30
2023-03-08T18:40:12.300Z,2.25
2023-03-08T18:42:14.048Z,2.18
2023-03-08T18:44:15.737Z,2.17
2023-03-08T18:46:17.660Z,2.12
2023-03-08T18:48:20.152Z,2.08
2023-03-08T18:50:21.806Z,2.02
2023-03-08T18:52:23.453Z,1.97
2023-03-08T18:54:25.250Z,1.94
2023-03-08T18:56:29.239Z,1.91
2023-03-08T18:58:31.475Z,1.86
2023-03-08T19:00:33.680Z,1.83
2023-03-08T19:02:35.338Z,1.80
2023-03-08T19:04:38.802Z,1.76
2023-03-08T19:06:40.620Z,1.74
2023-03-08T19:08:43.401Z,1.70
2023-03-08T19:10:45.256Z,1.70
2023-03-08T19:12:48.725Z,1.68
2023-03-08T19:14:50.606Z,1.67
2023-03-08T19:16:52.258Z,1.64
2023-03-08T19:18:55.703Z,1.61
2023-03-08T19:20:57.582Z,1.59
2023-03-08T19:22:59.457Z,1.56
2023-03-08T19:25:01.030Z,1.53
2023-03-08T19:27:02.781Z,1.49
2023-03-08T19:29:09.536Z,1.46
2023-03-08T19:31:16.494Z,1.43
2023-03-08T19:33:29.789Z,1.40
2023-03-08T19:35:34.190Z,1.35
2023-03-08T19:37:35.858Z,1.35
2023-03-08T19:39:38.189Z,1.32
2023-03-08T19:41:40.456Z,1.30
2023-03-08T19:43:42.698Z,1.30
2023-03-08T19:45:49.889Z,1.29
2023-03-08T19:47:52.061Z,1.27
2023-03-08T19:49:53.831Z,1.27
2023-03-08T19:51:57.678Z,1.26
2023-03-08T19:53:59.437Z,1.24
2023-03-08T19:56:01.526Z,1.22
2023-03-08T19:58:03.199Z,1.20
2023-03-08T20:00:06.312Z,1.18
2023-03-08T20:02:12.444Z,1.15
2023-03-08T20:04:14.576Z,1.12
2023-03-08T20:06:22.327Z,1.07
2023-03-08T20:08:24.046Z,1.08
2023-03-08T20:10:25.685Z,1.05
2023-03-08T20:12:27.333Z,1.03
2023-03-08T20:14:29.217Z,1.01
2023-03-08T20:16:31.693Z,0.97
2023-03-08T20:18:34.979Z,0.95
2023-03-08T20:20:38.052Z,0.91
2023-03-08T20:22:39.682Z,0.90
2023-03-08T20:24:41.536Z,0.88
2023-03-08T20:26:43.151Z,0.87
2023-03-08T20:28:44.828Z,0.84
2023-03-08T20:30:46.629Z,0.81
2023-03-08T20:32:48.406Z,0.80
2023-03-08T20:34:51.852Z,0.77
2023-03-08T20:36:53.487Z,0.74
2023-03-08T20:38:55.180Z,0.71
2023-03-08T20:41:01.713Z,0.70
2023-03-08T20:43:03.316Z,0.67
2023-03-08T20:45:06.659Z,0.64
2023-03-08T20:47:08.519Z,0.63
2023-03-08T20:49:10.085Z,0.61
2023-03-08T20:51:15.189Z,0.58
2023-03-08T20:53:16.814Z,0.56
2023-03-08T20:55:19.108Z,0.53
2023-03-08T20:57:20.825Z,0.51
2023-03-08T20:59:22.443Z,0.48
2023-03-08T21:01:26.386Z,0.46
2023-03-08T21:03:27.981Z,0.44
2023-03-08T21:05:32.901Z,0.43
2023-03-08T21:07:36.119Z,0.40
2023-03-08T21:09:37.764Z,0.38
2023-03-08T21:11:40.461Z,0.35
2023-03-08T21:13:42.531Z,0.32
2023-03-08T21:15:44.353Z,0.31
2023-03-08T21:17:46.124Z,0.29
2023-03-08T21:19:47.727Z,0.28
2023-03-08T21:21:49.558Z,0.27
2023-03-08T21:23:54.712Z,0.26
2023-03-08T21:26:03.440Z,0.25
2023-03-08T21:28:05.625Z,0.21
2023-03-08T21:30:09.453Z,0.22
2023-03-08T21:32:11.401Z,0.20
2023-03-08T21:34:13.739Z,0.18
2023-03-08T21:36:15.919Z,0.17
2023-03-08T21:38:17.631Z,0.15
2023-03-08T21:40:20.817Z,0.15
2023-03-08T21:42:22.551Z,0.14
2023-03-08T21:44:24.741Z,0.13
2023-03-08T21:46:26.725Z,0.10
2023-03-08T21:48:28.563Z,0.08
2023-03-08T21:50:30.420Z,0.09
2023-03-08T21:52:32.361Z,0.06
2023-03-08T21:54:34.031Z,0.07
2023-03-08T21:56:37.002Z,0.07
2023-03-08T21:58:38.859Z,0.05
2023-03-08T22:00:40.524Z,0.05
2023-03-08T22:02:42.214Z,0.04
2023-03-08T22:04:44.130Z,0.02
2023-03-08T22:06:45.763Z,-0.01
2023-03-08T22:08:48.280Z,-0.02
2023-03-08T22:10:50.367Z,-0.04
2023-03-08T22:12:53.590Z,-0.06
2023-03-08T22:14:55.439Z,-0.08
2023-03-08T22:16:57.267Z,-0.09
2023-03-08T22:19:00.647Z,-0.11
2023-03-08T22:21:02.541Z,-0.12
2023-03-08T22:23:04.577Z,-0.15
2023-03-08T22:25:07.924Z,-0.15
2023-03-08T22:27:09.712Z,-0.16
2023-03-08T22:29:12.939Z,-0.16
2023-03-08T22:31:16.806Z,-0.19
2023-03-08T22:33:18.649Z,-0.19
2023-03-08T22:35:20.272Z,-0.20
2023-03-08T22:37:21.906Z,-0.22
2023-03-08T22:39:24.121Z,-0.24
2023-03-08T22:41:27.811Z,-0.25
2023-03-08T22:43:29.461Z,-0.26
2023-03-08T22:45:32.908Z,-0.27
2023-03-08T22:47:34.877Z,-0.28
2023-03-08T22:49:36.801Z,-0.28
2023-03-08T22:51:39.710Z,-0.29
2023-03-08T22:53:41.479Z,-0.31
2023-03-08T22:55:47.417Z,-0.31
2023-03-08T22:57:49.019Z,-0.33
2023-03-08T22:59:55.223Z,-0.33
2023-03-08T23:01:58.677Z,-0.35
2023-03-08T23:04:01.954Z,-0.37
2023-03-08T23:06:03.691Z,-0.40
2023-03-08T23:08:05.887Z,-0.40
2023-03-08T23:10:08.914Z,-0.42
2023-03-08T23:12:10.555Z,-0.43
2023-03-08T23:14:12.817Z,-0.45
2023-03-08T23:16:16.244Z,-0.46
2023-03-08T23:18:19.398Z,-0.48
2023-03-08T23:20:21.280Z,-0.51
2023-03-08T23:22:22.912Z,-0.52
2023-03-08T23:24:24.467Z,-0.53
2023-03-08T23:26:26.953Z,-0.54
2023-03-08T23:28:28.804Z,-0.57
2023-03-08T23:30:30.607Z,-0.59
2023-03-08T23:32:32.919Z,-0.59
2023-03-08T23:34:36.257Z,-0.61
2023-03-08T23:36:38.009Z,-0.63
2023-03-08T23:38:40.851Z,-0.63
2023-03-08T23:40:42.744Z,-0.67
2023-03-08T23:42:44.598Z,-0.65
2023-03-08T23:44:46.215Z,-0.66
2023-03-08T23:46:47.996Z,-0.65
2023-03-08T23:48:50.099Z,-0.65
2023-03-08T23:50:53.193Z,-0.64
2023-03-08T23:52:55.113Z,-0.64
2023-03-08T23:54:56.878Z,-0.63
2023-03-08T23:56:58.761Z,-0.64
2023-03-08T23:59:01.541Z,-0.64
